createdAt,value
2018-10-01T00:01:20.564Z,3.83
2018-10-01T00:03:47.876Z,4.67
2018-10-01T00:06:15.135Z,4.97
2018-10-01T00:08:42.417Z,4.80
2018-10-01T00:11:09.722Z,4.57
2018-10-01T00:13:36.989Z,4.50
2018-10-01T00:16:04.570Z,4.23
2018-10-01T00:18:31.879Z,3.90
2018-10-01T00:21:04.926Z,4.20
2018-10-01T00:23:32.217Z,4.97
2018-10-01T00:25:59.489Z,4.23
2018-10-01T00:28:26.807Z,5.17
2018-10-01T00:30:54.199Z,4.10
2018-10-01T00:33:21.485Z,4.07
2018-10-01T00:35:49.079Z,4.70
2018-10-01T00:38:16.412Z,3.80
2018-10-01T00:40:43.648Z,4.83
2018-10-01T00:43:10.967Z,3.67
2018-10-01T00:45:38.277Z,4.90
2018-10-01T00:48:05.592Z,5.07
2018-10-01T00:50:32.931Z,3.90
2018-10-01T00:53:00.275Z,4.17
2018-10-01T00:55:27.593Z,4.03
2018-10-01T00:57:54.937Z,4.20
2018-10-01T01:00:22.317Z,4.40
2018-10-01T01:02:49.634Z,4.67
2018-10-01T01:05:16.987Z,5.03
2018-10-01T01:07:44.570Z,4.57
2018-10-01T01:10:11.987Z,5.00
2018-10-01T01:12:39.239Z,3.93
2018-10-01T01:15:06.626Z,4.43
2018-10-01T01:17:33.901Z,3.90
2018-10-01T01:20:01.182Z,3.27
2018-10-01T01:22:28.489Z,4.40
2018-10-01T01:24:56.302Z,3.60
2018-10-01T01:27:23.582Z,3.90
2018-10-01T01:29:50.970Z,4.40
2018-10-01T01:32:18.267Z,4.20
2018-10-01T01:34:45.537Z,4.17
2018-10-01T01:37:12.846Z,4.57
2018-10-01T01:39:40.105Z,3.97
2018-10-01T01:42:07.462Z,4.20
2018-10-01T01:44:34.776Z,4.23
2018-10-01T01:47:02.071Z,3.87
2018-10-01T01:49:29.366Z,4.17
2018-10-01T01:51:56.756Z,4.00
2018-10-01T01:54:24.030Z,4.07
2018-10-01T01:56:51.447Z,4.20
2018-10-01T01:59:18.711Z,5.00
2018-10-01T02:01:46.004Z,4.93
2018-10-01T02:04:13.352Z,4.40
2018-10-01T02:06:40.651Z,4.93
2018-10-01T02:09:08.918Z,4.00
2018-10-01T02:11:36.227Z,5.13
2018-10-01T02:14:03.602Z,5.23
2018-10-01T02:16:30.939Z,4.23
2018-10-01T02:18:58.206Z,5.00
2018-10-01T02:21:25.499Z,5.00
2018-10-01T02:23:52.782Z,5.13
2018-10-01T02:26:20.044Z,4.60
2018-10-01T02:28:47.304Z,4.90
2018-10-01T02:31:14.683Z,4.17
2018-10-01T02:33:41.941Z,6.13
2018-10-01T02:36:09.208Z,6.13
2018-10-01T02:38:36.476Z,5.63
2018-10-01T02:41:03.885Z,4.77
2018-10-01T02:43:31.174Z,5.63
2018-10-01T02:45:58.587Z,5.47
2018-10-01T02:48:25.859Z,6.07
2018-10-01T02:50:53.141Z,6.13
2018-10-01T02:53:26.079Z,6.43
2018-10-01T02:55:53.349Z,6.90
2018-10-01T02:58:20.624Z,6.40
2018-10-01T03:00:48.324Z,6.37
2018-10-01T03:03:15.682Z,6.60
2018-10-01T03:05:43.030Z,6.07
2018-10-01T03:08:10.282Z,6.33
2018-10-01T03:10:37.567Z,5.87
2018-10-01T03:13:04.887Z,5.93
2018-10-01T03:15:32.155Z,6.37
2018-10-01T03:17:59.425Z,6.57
2018-10-01T03:20:27.217Z,6.90
2018-10-01T03:22:54.499Z,6.40
2018-10-01T03:25:21.780Z,6.90
2018-10-01T03:27:49.134Z,5.60
2018-10-01T03:30:16.509Z,6.47
2018-10-01T03:32:43.753Z,6.87
2018-10-01T03:35:11.119Z,6.73
2018-10-01T03:37:38.554Z,7.77
2018-10-01T03:40:05.943Z,8.77
2018-10-01T03:42:33.258Z,8.20
2018-10-01T03:45:00.830Z,9.43
2018-10-01T03:47:28.207Z,9.10
2018-10-01T03:49:55.531Z,10.27
2018-10-01T03:52:22.797Z,9.07
2018-10-01T03:54:50.081Z,10.17
2018-10-01T03:57:17.468Z,9.57
2018-10-01T03:59:44.846Z,8.57
2018-10-01T04:02:12.198Z,9.90
2018-10-01T04:04:39.481Z,11.80
2018-10-01T04:07:06.910Z,9.80
2018-10-01T04:09:34.288Z,11.07
2018-10-01T04:12:01.648Z,10.67
2018-10-01T04:14:29.226Z,11.57
2018-10-01T04:16:56.569Z,11.03
2018-10-01T04:19:23.975Z,15.13
2018-10-01T04:21:51.277Z,14.97
2018-10-01T04:24:18.652Z,12.37
2018-10-01T04:26:45.948Z,14.57
2018-10-01T04:29:14.047Z,12.83
2018-10-01T04:31:42.505Z,13.47
2018-10-01T04:34:09.770Z,11.77
2018-10-01T04:36:37.102Z,12.43
2018-10-01T04:39:07.878Z,11.07
2018-10-01T04:41:35.208Z,13.00
2018-10-01T04:44:02.510Z,14.27
2018-10-01T04:46:29.816Z,11.63
2018-10-01T04:48:57.155Z,13.50
2018-10-01T04:51:24.510Z,14.67
2018-10-01T04:53:51.852Z,56.13
2018-10-01T04:56:19.203Z,81.77
2018-10-01T04:58:46.497Z,208.33
2018-10-01T05:01:13.781Z,131.63
2018-10-01T05:03:41.130Z,18.20
2018-10-01T05:06:08.514Z,16.93
2018-10-01T05:08:35.702Z,17.90
2018-10-01T05:11:03.062Z,15.33
2018-10-01T05:13:30.381Z,15.33
2018-10-01T05:15:57.649Z,16.10
2018-10-01T05:18:24.904Z,15.77
2018-10-01T05:20:52.203Z,14.53
2018-10-01T05:23:19.461Z,15.77
2018-10-01T05:25:46.816Z,16.17
2018-10-01T05:28:14.543Z,18.40
2018-10-01T05:30:41.804Z,25.23
2018-10-01T05:33:09.032Z,23.53
2018-10-01T05:35:36.373Z,20.23
2018-10-01T05:38:03.622Z,22.20
2018-10-01T05:40:30.878Z,17.27
2018-10-01T05:42:58.242Z,18.27
2018-10-01T05:45:25.487Z,18.43
2018-10-01T05:47:52.763Z,20.57
2018-10-01T05:50:20.029Z,21.73
2018-10-01T05:52:47.298Z,20.53
2018-10-01T05:55:14.571Z,21.43
2018-10-01T05:57:41.859Z,20.00
2018-10-01T06:00:09.131Z,21.47
2018-10-01T06:02:36.376Z,23.03
2018-10-01T06:05:03.874Z,23.53
2018-10-01T06:07:31.153Z,23.47
2018-10-01T06:09:58.517Z,24.07
2018-10-01T06:12:25.783Z,23.77
2018-10-01T06:14:53.066Z,22.40
2018-10-01T06:17:20.320Z,24.37
2018-10-01T06:19:47.582Z,22.17
2018-10-01T06:22:14.890Z,22.50
2018-10-01T06:24:42.141Z,23.03
2018-10-01T06:27:09.435Z,22.80
2018-10-01T06:29:36.724Z,24.70
2018-10-01T06:32:03.998Z,24.00
2018-10-01T06:34:31.261Z,23.73
2018-10-01T06:36:58.561Z,23.57
2018-10-01T06:39:25.876Z,21.77
2018-10-01T06:41:53.205Z,23.03
2018-10-01T06:44:20.381Z,21.77
2018-10-01T06:46:47.633Z,22.13
2018-10-01T06:49:14.874Z,23.03
2018-10-01T06:51:42.216Z,19.57
2018-10-01T06:54:09.503Z,19.70
2018-10-01T06:56:36.838Z,19.63
2018-10-01T06:59:04.101Z,21.10
2018-10-01T07:01:31.381Z,18.57
2018-10-01T07:03:58.660Z,19.67
2018-10-01T07:06:25.931Z,19.80
2018-10-01T07:08:53.210Z,18.33
2018-10-01T07:11:20.516Z,21.97
2018-10-01T07:13:47.790Z,20.53
2018-10-01T07:16:15.190Z,20.63
2018-10-01T07:18:43.303Z,20.93
2018-10-01T07:21:10.582Z,21.03
2018-10-01T07:23:37.842Z,20.70
2018-10-01T07:26:05.102Z,22.23
2018-10-01T07:28:32.375Z,22.60
2018-10-01T07:30:59.688Z,21.70
2018-10-01T07:33:27.033Z,22.10
2018-10-01T07:35:54.294Z,22.77
2018-10-01T07:38:21.578Z,23.70
2018-10-01T07:40:48.939Z,22.33
2018-10-01T07:43:16.228Z,22.60
2018-10-01T07:45:43.518Z,22.50
2018-10-01T07:48:10.859Z,23.33
2018-10-01T07:50:38.194Z,24.63
2018-10-01T07:53:05.579Z,24.73
2018-10-01T07:55:32.855Z,25.07
2018-10-01T07:58:00.152Z,25.07
2018-10-01T08:00:27.450Z,23.43
2018-10-01T08:02:54.773Z,22.77
2018-10-01T08:05:22.069Z,22.03
2018-10-01T08:07:49.316Z,21.13
2018-10-01T08:10:16.599Z,23.13
2018-10-01T08:12:43.870Z,23.00
2018-10-01T08:15:11.136Z,21.67
2018-10-01T08:17:38.402Z,20.80
2018-10-01T08:20:05.833Z,22.20
2018-10-01T08:22:33.079Z,20.67
2018-10-01T08:25:00.454Z,21.80
2018-10-01T08:27:27.720Z,18.43
2018-10-01T08:29:55.154Z,16.80
2018-10-01T08:32:22.365Z,17.97
2018-10-01T08:34:49.581Z,15.20
2018-10-01T08:37:16.840Z,15.83
2018-10-01T08:39:44.134Z,15.30
2018-10-01T08:42:11.400Z,14.77
2018-10-01T08:44:38.772Z,14.87
2018-10-01T08:47:06.164Z,14.53
2018-10-01T08:49:46.416Z,14.73
2018-10-01T08:52:19.359Z,16.30
2018-10-01T08:54:47.390Z,12.33
2018-10-01T08:57:14.677Z,11.43
2018-10-01T08:59:42.035Z,12.07
2018-10-01T09:02:09.333Z,11.43
2018-10-01T09:04:36.604Z,10.53
2018-10-01T09:07:04.013Z,10.20
2018-10-01T09:09:31.390Z,9.50
2018-10-01T09:11:58.670Z,7.20
2018-10-01T09:14:25.975Z,7.07
2018-10-01T09:16:53.206Z,7.20
2018-10-01T09:19:21.022Z,7.67
2018-10-01T09:21:48.456Z,6.93
2018-10-01T09:24:15.709Z,6.63
2018-10-01T09:26:43.001Z,7.00
2018-10-01T09:29:10.333Z,6.53
2018-10-01T09:31:37.545Z,6.13
2018-10-01T09:34:04.998Z,6.13
2018-10-01T09:36:32.170Z,6.27
2018-10-01T09:38:59.441Z,6.80
2018-10-01T09:41:26.779Z,5.27
2018-10-01T09:43:54.003Z,6.07
2018-10-01T09:46:21.206Z,5.80
2018-10-01T09:48:48.397Z,5.90
2018-10-01T09:51:15.660Z,6.03
2018-10-01T09:53:42.881Z,5.80
2018-10-01T09:56:10.138Z,5.67
2018-10-01T09:58:37.393Z,6.67
2018-10-01T10:01:08.552Z,5.33
2018-10-01T10:03:35.699Z,5.20
2018-10-01T10:06:03.058Z,4.73
2018-10-01T10:08:30.258Z,4.57
2018-10-01T10:10:57.411Z,3.83
2018-10-01T10:13:24.644Z,4.33
2018-10-01T10:15:51.849Z,3.47
2018-10-01T10:18:19.110Z,3.63
2018-10-01T10:20:46.267Z,3.77
2018-10-01T10:23:13.635Z,3.60
2018-10-01T10:25:40.812Z,3.67
2018-10-01T10:28:08.005Z,3.63
2018-10-01T10:30:35.156Z,3.40
2018-10-01T10:33:02.331Z,3.70
2018-10-01T10:35:29.615Z,3.20
2018-10-01T10:37:56.744Z,2.90
2018-10-01T10:40:23.906Z,2.73
2018-10-01T10:42:51.112Z,2.57
2018-10-01T10:45:18.460Z,2.33
2018-10-01T10:47:45.616Z,2.17
2018-10-01T10:50:13.063Z,2.30
2018-10-01T10:52:40.192Z,2.47
2018-10-01T10:55:07.705Z,2.23
2018-10-01T10:57:34.922Z,2.23
2018-10-01T11:00:02.175Z,2.13
2018-10-01T11:02:29.377Z,1.80
2018-10-01T11:04:56.491Z,2.20
2018-10-01T11:07:23.675Z,2.30
2018-10-01T11:09:50.815Z,2.30
2018-10-01T11:12:17.960Z,2.53
2018-10-01T11:14:45.181Z,2.00
2018-10-01T11:17:12.353Z,2.40
2018-10-01T11:19:39.581Z,2.77
2018-10-01T11:22:06.673Z,3.17
2018-10-01T11:24:33.834Z,2.07
2018-10-01T11:27:00.998Z,1.77
2018-10-01T11:29:28.143Z,1.93
2018-10-01T11:31:55.524Z,1.50
2018-10-01T11:34:22.520Z,1.40
2018-10-01T11:36:49.665Z,1.70
2018-10-01T11:39:16.953Z,1.50
2018-10-01T11:41:44.036Z,1.40
2018-10-01T11:44:11.216Z,1.45
2018-10-01T11:46:38.409Z,1.57
2018-10-01T11:49:05.676Z,1.10
2018-10-01T11:51:32.883Z,1.40
2018-10-01T11:54:00.027Z,1.60
2018-10-01T11:56:27.182Z,1.80
2018-10-01T11:58:54.331Z,1.62
2018-10-01T12:01:21.511Z,1.70
2018-10-01T12:03:48.683Z,1.70
2018-10-01T12:06:15.812Z,2.45
2018-10-01T12:08:43.073Z,2.52
2018-10-01T12:11:10.324Z,2.05
2018-10-01T12:13:37.576Z,2.27
2018-10-01T12:16:04.973Z,2.17
2018-10-01T12:18:32.028Z,2.10
2018-10-01T12:20:59.327Z,1.73
2018-10-01T12:23:26.419Z,2.22
2018-10-01T12:25:53.631Z,2.17
2018-10-01T12:28:20.789Z,1.70
2018-10-01T12:30:47.937Z,1.57
2018-10-01T12:33:15.282Z,1.33
2018-10-01T12:35:42.329Z,1.60
2018-10-01T12:38:09.463Z,1.90
2018-10-01T12:40:36.767Z,2.37
2018-10-01T12:43:03.992Z,1.70
2018-10-01T12:45:31.202Z,2.00
2018-10-01T12:47:58.380Z,2.20
2018-10-01T12:50:25.696Z,1.30
2018-10-01T12:52:52.741Z,2.07
2018-10-01T12:55:19.915Z,1.33
2018-10-01T12:57:47.151Z,1.33
2018-10-01T13:00:14.233Z,0.90
2018-10-01T13:02:41.385Z,0.70
2018-10-01T13:05:08.657Z,0.62
2018-10-01T13:07:35.763Z,0.78
2018-10-01T13:10:02.971Z,0.60
2018-10-01T13:12:30.180Z,0.80
2018-10-01T13:14:57.563Z,0.97
2018-10-01T13:17:24.738Z,1.10
2018-10-01T13:19:51.971Z,0.80
2018-10-01T13:22:19.131Z,1.70
2018-10-01T13:24:46.383Z,2.70
2018-10-01T13:27:13.438Z,1.13
2018-10-01T13:29:40.615Z,0.90
2018-10-01T13:32:07.796Z,0.87
2018-10-01T13:34:34.940Z,1.23
2018-10-01T13:37:02.102Z,1.50
2018-10-01T13:39:29.281Z,0.93
2018-10-01T13:41:56.471Z,1.13
2018-10-01T13:44:23.645Z,1.10
2018-10-01T13:46:50.785Z,1.47
2018-10-01T13:49:17.940Z,1.10
2018-10-01T13:51:45.082Z,0.83
2018-10-01T13:54:12.320Z,1.40
2018-10-01T13:56:39.496Z,1.93
2018-10-01T13:59:06.669Z,5.03
2018-10-01T14:01:34.095Z,17.43
2018-10-01T14:04:01.183Z,2.03
2018-10-01T14:06:28.438Z,18.10
2018-10-01T14:08:55.655Z,1.80
2018-10-01T14:11:22.859Z,4.17
2018-10-01T14:13:50.283Z,1.90
2018-10-01T14:16:17.387Z,1.17
2018-10-01T14:18:44.575Z,1.20
2018-10-01T14:21:11.922Z,2.00
2018-10-01T14:23:39.075Z,1.27
2018-10-01T14:26:06.312Z,1.60
2018-10-01T14:28:33.472Z,1.27
2018-10-01T14:31:00.926Z,1.23
2018-10-01T14:33:27.969Z,1.57
2018-10-01T14:35:55.275Z,1.30
2018-10-01T14:38:22.417Z,1.73
2018-10-01T14:40:49.566Z,2.27
2018-10-01T14:43:16.716Z,1.70
2018-10-01T14:45:43.888Z,1.40
2018-10-01T14:48:11.228Z,1.13
2018-10-01T14:50:38.327Z,1.30
2018-10-01T14:53:05.563Z,1.60
2018-10-01T14:55:32.774Z,2.27
2018-10-01T14:57:59.927Z,1.60
2018-10-01T15:00:27.270Z,1.77
2018-10-01T15:02:54.260Z,3.10
2018-10-01T15:05:21.446Z,2.23
2018-10-01T15:07:48.599Z,2.03
2018-10-01T15:10:15.754Z,2.10
2018-10-01T15:12:42.952Z,2.33
2018-10-01T15:15:10.219Z,2.63
2018-10-01T15:17:37.388Z,1.50
2018-10-01T15:20:04.588Z,2.80
2018-10-01T15:22:31.750Z,1.87
2018-10-01T15:24:58.952Z,2.37
2018-10-01T15:27:26.135Z,2.00
2018-10-01T15:29:53.312Z,2.17
2018-10-01T15:32:20.470Z,2.13
2018-10-01T15:34:47.624Z,2.27
2018-10-01T15:37:14.775Z,2.73
2018-10-01T15:39:41.936Z,2.90
2018-10-01T15:42:09.091Z,1.90
2018-10-01T15:44:36.233Z,2.00
2018-10-01T15:47:03.626Z,2.10
2018-10-01T15:49:30.769Z,2.43
2018-10-01T15:51:57.919Z,1.63
2018-10-01T15:54:25.086Z,1.90
2018-10-01T15:56:52.235Z,2.13
2018-10-01T15:59:19.396Z,2.23
2018-10-01T16:01:46.655Z,1.90
2018-10-01T16:04:13.816Z,2.10
2018-10-01T16:06:40.954Z,1.83
2018-10-01T16:09:09.302Z,2.53
2018-10-01T16:11:36.818Z,2.67
2018-10-01T16:14:04.071Z,2.20
2018-10-01T16:16:31.234Z,2.30
2018-10-01T16:18:58.399Z,2.00
2018-10-01T16:21:25.576Z,2.53
2018-10-01T16:23:52.739Z,2.13
2018-10-01T16:26:19.897Z,2.10
2018-10-01T16:28:47.054Z,2.03
2018-10-01T16:31:14.225Z,3.47
2018-10-01T16:33:41.374Z,2.60
2018-10-01T16:36:08.536Z,2.30
2018-10-01T16:38:35.666Z,2.40
2018-10-01T16:41:02.814Z,2.47
2018-10-01T16:43:29.975Z,1.80
2018-10-01T16:45:57.130Z,1.60
2018-10-01T16:48:24.284Z,2.40
2018-10-01T16:50:51.446Z,1.90
2018-10-01T16:53:18.594Z,1.93
2018-10-01T16:55:45.748Z,2.80
2018-10-01T16:58:12.965Z,2.17
2018-10-01T17:00:40.107Z,2.70
2018-10-01T17:03:07.350Z,2.50
2018-10-01T17:05:34.512Z,3.10
2018-10-01T17:08:01.808Z,2.70
2018-10-01T17:10:28.980Z,2.13
2018-10-01T17:12:56.132Z,2.03
2018-10-01T17:15:23.328Z,2.17
2018-10-01T17:17:57.266Z,2.53
2018-10-01T17:20:24.432Z,1.70
2018-10-01T17:22:51.725Z,1.97
2018-10-01T17:25:18.886Z,1.80
2018-10-01T17:27:46.042Z,1.90
2018-10-01T17:30:13.287Z,1.90
2018-10-01T17:32:40.402Z,2.27
2018-10-01T17:35:07.659Z,1.17
2018-10-01T17:37:34.811Z,2.00
2018-10-01T17:40:01.976Z,1.60
2018-10-01T17:42:29.230Z,2.07
2018-10-01T17:44:56.417Z,2.37
2018-10-01T17:47:23.606Z,1.20
2018-10-01T17:49:50.807Z,2.40
2018-10-01T17:52:17.956Z,19.30
2018-10-01T17:54:45.090Z,25.13
2018-10-01T17:57:12.380Z,28.23
2018-10-01T17:59:39.572Z,5.03
2018-10-01T18:02:06.773Z,3.40
2018-10-01T18:04:34.188Z,3.03
2018-10-01T18:07:01.648Z,3.40
2018-10-01T18:09:28.807Z,2.40
2018-10-01T18:11:55.994Z,3.83
2018-10-01T18:14:23.192Z,3.83
2018-10-01T18:16:50.426Z,2.23
2018-10-01T18:19:18.019Z,3.13
2018-10-01T18:21:45.222Z,2.40
2018-10-01T18:24:12.391Z,3.13
2018-10-01T18:26:39.515Z,2.37
2018-10-01T18:29:06.734Z,4.33
2018-10-01T18:31:33.908Z,2.67
2018-10-01T18:34:01.109Z,2.53
2018-10-01T18:36:28.271Z,1.90
2018-10-01T18:38:55.424Z,2.00
2018-10-01T18:41:22.623Z,1.60
2018-10-01T18:43:49.892Z,2.33
2018-10-01T18:46:17.016Z,6.77
2018-10-01T18:48:44.206Z,6.63
2018-10-01T18:51:11.362Z,3.80
2018-10-01T18:53:38.504Z,2.73
2018-10-01T18:56:05.754Z,2.33
2018-10-01T18:58:32.915Z,3.33
2018-10-01T19:01:00.179Z,3.10
2018-10-01T19:03:27.667Z,2.27
2018-10-01T19:05:54.983Z,2.80
2018-10-01T19:08:22.093Z,2.17
2018-10-01T19:10:49.679Z,1.60
2018-10-01T19:13:23.570Z,2.00
2018-10-01T19:15:50.744Z,1.80
2018-10-01T19:18:17.936Z,2.10
2018-10-01T19:20:45.100Z,1.90
2018-10-01T19:23:12.231Z,2.00
2018-10-01T19:25:39.393Z,2.00
2018-10-01T19:28:06.695Z,4.20
2018-10-01T19:30:33.903Z,1.93
2018-10-01T19:33:01.162Z,2.20
2018-10-01T19:35:28.400Z,2.20
2018-10-01T19:37:55.512Z,2.00
2018-10-01T19:40:23.050Z,1.77
2018-10-01T19:42:50.337Z,1.93
2018-10-01T19:45:17.649Z,2.47
2018-10-01T19:47:44.951Z,2.00
2018-10-01T19:50:12.118Z,1.80
2018-10-01T19:52:39.317Z,1.80
2018-10-01T19:55:06.751Z,2.23
2018-10-01T19:57:33.935Z,2.13
2018-10-01T20:00:01.227Z,1.90
2018-10-01T20:02:28.388Z,60.43
2018-10-01T20:04:55.845Z,18.97
2018-10-01T20:07:22.953Z,4.43
2018-10-01T20:09:50.116Z,3.20
2018-10-01T20:12:17.475Z,2.63
2018-10-01T20:14:44.821Z,1.93
2018-10-01T20:17:12.362Z,2.10
2018-10-01T20:19:39.681Z,2.63
2018-10-01T20:22:08.920Z,1.90
2018-10-01T20:24:36.042Z,2.10
2018-10-01T20:27:03.279Z,1.70
2018-10-01T20:29:30.510Z,1.73
2018-10-01T20:31:57.675Z,1.50
2018-10-01T20:34:24.771Z,1.90
2018-10-01T20:36:51.990Z,1.47
2018-10-01T20:39:19.142Z,2.00
2018-10-01T20:41:46.704Z,1.43
2018-10-01T20:44:13.832Z,2.10
2018-10-01T20:46:41.061Z,1.77
2018-10-01T20:49:08.168Z,2.20
2018-10-01T20:51:35.317Z,2.10
2018-10-01T20:54:02.591Z,2.00
2018-10-01T20:56:29.730Z,1.80
2018-10-01T20:58:56.934Z,1.50
2018-10-01T21:01:24.157Z,1.93
2018-10-01T21:03:51.449Z,2.07
2018-10-01T21:06:18.586Z,2.00
2018-10-01T21:08:45.799Z,2.10
2018-10-01T21:11:12.962Z,1.83
2018-10-01T21:13:40.105Z,2.37
2018-10-01T21:16:07.416Z,1.70
2018-10-01T21:18:34.580Z,1.90
2018-10-01T21:21:01.790Z,1.80
2018-10-01T21:23:28.955Z,1.70
2018-10-01T21:25:56.123Z,1.60
2018-10-01T21:28:23.270Z,2.30
2018-10-01T21:30:50.515Z,2.27
2018-10-01T21:33:17.677Z,1.23
2018-10-01T21:35:44.824Z,2.17
2018-10-01T21:38:11.996Z,1.60
2018-10-01T21:40:39.168Z,2.07
2018-10-01T21:43:06.353Z,1.50
2018-10-01T21:45:33.503Z,1.50
2018-10-01T21:48:00.776Z,2.20
2018-10-01T21:50:27.935Z,1.63
2018-10-01T21:52:55.359Z,1.93
2018-10-01T21:55:22.530Z,1.73
2018-10-01T21:57:49.712Z,1.83
2018-10-01T22:00:16.891Z,1.93
2018-10-01T22:02:44.180Z,1.30
2018-10-01T22:05:11.426Z,1.40
2018-10-01T22:07:38.563Z,1.97
2018-10-01T22:10:05.764Z,2.20
2018-10-01T22:12:32.926Z,2.10
2018-10-01T22:15:00.077Z,1.53
2018-10-01T22:17:27.234Z,1.63
2018-10-01T22:19:54.408Z,1.70
2018-10-01T22:22:21.556Z,1.67
2018-10-01T22:24:48.705Z,1.93
2018-10-01T22:27:15.981Z,2.20
2018-10-01T22:29:43.121Z,1.93
2018-10-01T22:32:10.296Z,2.13
2018-10-01T22:34:37.458Z,2.40
2018-10-01T22:37:04.716Z,2.80
2018-10-01T22:39:31.868Z,2.73
2018-10-01T22:41:59.025Z,2.57
2018-10-01T22:44:26.180Z,2.20
2018-10-01T22:46:53.331Z,3.13
2018-10-01T22:49:20.556Z,2.53
2018-10-01T22:51:47.829Z,2.60
2018-10-01T22:54:14.979Z,2.60
2018-10-01T22:56:42.137Z,3.20
2018-10-01T22:59:09.291Z,2.93
2018-10-01T23:01:36.469Z,3.20
2018-10-01T23:04:03.641Z,3.60
2018-10-01T23:06:30.798Z,3.00
2018-10-01T23:08:57.959Z,3.70
2018-10-01T23:11:25.117Z,3.57
2018-10-01T23:13:52.252Z,3.40
2018-10-01T23:16:19.414Z,4.30
2018-10-01T23:18:46.566Z,4.63
2018-10-01T23:21:13.713Z,4.50
2018-10-01T23:23:40.921Z,4.97
2018-10-01T23:26:08.071Z,7.30
2018-10-01T23:28:35.335Z,6.47
2018-10-01T23:31:02.515Z,6.80
2018-10-01T23:33:29.654Z,4.77
2018-10-01T23:35:56.803Z,6.23
2018-10-01T23:38:24.033Z,5.17
2018-10-01T23:40:51.149Z,6.10
2018-10-01T23:43:18.318Z,5.90
2018-10-01T23:45:45.474Z,6.97
2018-10-01T23:48:12.621Z,7.33
2018-10-01T23:50:39.774Z,6.83
2018-10-01T23:53:07.015Z,9.07
2018-10-01T23:55:34.371Z,9.23
2018-10-01T23:58:01.635Z,13.43
